createdAt,value
2018-06-03T00:01:37.522Z,16.74
2018-06-03T00:04:06.175Z,16.68
2018-06-03T00:06:34.606Z,16.62
2018-06-03T00:09:03.099Z,16.58
2018-06-03T00:11:31.562Z,16.62
2018-06-03T00:13:59.949Z,16.64
2018-06-03T00:16:28.298Z,16.61
2018-06-03T00:18:56.776Z,16.59
2018-06-03T00:21:36.434Z,16.59
2018-06-03T00:24:04.841Z,16.54
2018-06-03T00:26:33.287Z,16.52
2018-06-03T00:29:01.795Z,16.55
2018-06-03T00:31:30.265Z,16.52
2018-06-03T00:33:58.646Z,16.49
2018-06-03T00:36:38.216Z,16.51
2018-06-03T00:39:08.514Z,16.48
2018-06-03T00:41:37.038Z,16.42
2018-06-03T00:44:05.519Z,16.31
2018-06-03T00:46:34.009Z,16.29
2018-06-03T00:49:02.436Z,16.28
2018-06-03T00:51:30.805Z,16.28
2018-06-03T00:53:59.202Z,16.32
2018-06-03T00:56:38.994Z,16.39
2018-06-03T00:59:07.480Z,16.37
2018-06-03T01:01:36.070Z,16.31
2018-06-03T01:04:04.522Z,16.25
2018-06-03T01:06:32.950Z,16.22
2018-06-03T01:09:01.436Z,16.19
2018-06-03T01:11:30.092Z,16.21
2018-06-03T01:13:59.642Z,16.21
2018-06-03T01:16:28.010Z,16.18
2018-06-03T01:18:56.458Z,16.08
2018-06-03T01:21:24.859Z,16.03
2018-06-03T01:23:53.372Z,15.99
2018-06-03T01:26:21.722Z,15.93
2018-06-03T01:28:50.131Z,15.93
2018-06-03T01:31:18.588Z,15.89
2018-06-03T01:33:46.982Z,15.86
2018-06-03T01:36:15.356Z,15.89
2018-06-03T01:38:43.750Z,15.83
2018-06-03T01:41:12.209Z,15.81
2018-06-03T01:43:40.589Z,15.77
2018-06-03T01:46:08.980Z,15.81
2018-06-03T01:48:37.416Z,15.79
2018-06-03T01:51:06.038Z,15.75
2018-06-03T01:53:34.398Z,15.77
2018-06-03T01:56:02.807Z,15.75
2018-06-03T01:58:31.168Z,15.68
2018-06-03T02:00:59.573Z,15.63
2018-06-03T02:03:28.019Z,15.64
2018-06-03T02:05:56.498Z,15.61
2018-06-03T02:08:24.881Z,15.57
2018-06-03T02:10:53.386Z,15.53
2018-06-03T02:13:21.922Z,15.56
2018-06-03T02:15:50.522Z,15.53
2018-06-03T02:18:18.958Z,15.51
2018-06-03T02:20:47.418Z,15.52
2018-06-03T02:23:15.874Z,15.48
2018-06-03T02:25:44.276Z,15.54
2018-06-03T02:28:12.757Z,15.49
2018-06-03T02:30:41.230Z,15.48
2018-06-03T02:33:09.595Z,15.44
2018-06-03T02:35:38.011Z,15.40
2018-06-03T02:38:06.527Z,15.40
2018-06-03T02:40:34.986Z,15.36
2018-06-03T02:43:03.499Z,15.36
2018-06-03T02:45:31.924Z,15.36
2018-06-03T02:48:00.406Z,15.37
2018-06-03T02:50:28.926Z,15.32
2018-06-03T02:52:57.359Z,15.31
2018-06-03T02:55:25.748Z,15.29
2018-06-03T02:57:54.230Z,15.22
2018-06-03T03:00:22.770Z,15.16
2018-06-03T03:02:51.246Z,15.14
2018-06-03T03:05:19.683Z,15.07
2018-06-03T03:07:48.126Z,15.06
2018-06-03T03:10:16.631Z,15.04
2018-06-03T03:12:45.091Z,15.04
2018-06-03T03:15:13.506Z,15.06
2018-06-03T03:17:41.974Z,15.02
2018-06-03T03:20:10.466Z,15.00
2018-06-03T03:22:38.914Z,14.99
2018-06-03T03:25:07.322Z,15.00
2018-06-03T03:27:36.094Z,14.99
2018-06-03T03:30:04.561Z,15.02
2018-06-03T03:32:32.962Z,15.10
2018-06-03T03:35:01.343Z,15.11
2018-06-03T03:37:29.822Z,15.07
2018-06-03T03:39:58.199Z,14.98
2018-06-03T03:42:26.590Z,14.96
2018-06-03T03:44:55.085Z,14.89
2018-06-03T03:47:23.562Z,14.89
2018-06-03T03:49:51.999Z,14.93
2018-06-03T03:52:20.414Z,14.97
2018-06-03T03:54:48.871Z,14.99
2018-06-03T03:57:17.291Z,15.01
2018-06-03T03:59:45.729Z,15.02
2018-06-03T04:02:14.142Z,15.00
2018-06-03T04:04:42.591Z,15.04
2018-06-03T04:07:10.998Z,15.06
2018-06-03T04:09:39.466Z,15.09
2018-06-03T04:12:08.003Z,15.15
2018-06-03T04:14:36.414Z,15.21
2018-06-03T04:17:04.822Z,15.27
2018-06-03T04:19:33.280Z,15.36
2018-06-03T04:22:01.760Z,15.48
2018-06-03T04:24:30.226Z,15.59
2018-06-03T04:26:58.642Z,15.74
2018-06-03T04:29:27.038Z,15.87
2018-06-03T04:31:55.558Z,15.98
2018-06-03T04:34:23.986Z,16.11
2018-06-03T04:36:52.498Z,16.19
2018-06-03T04:39:20.950Z,16.31
2018-06-03T04:41:49.414Z,16.43
2018-06-03T04:44:17.819Z,16.53
2018-06-03T04:46:46.290Z,16.60
2018-06-03T04:49:14.674Z,16.65
2018-06-03T04:51:43.128Z,16.78
2018-06-03T04:54:11.541Z,16.89
2018-06-03T04:56:39.992Z,16.94
2018-06-03T04:59:08.395Z,17.04
2018-06-03T05:01:36.878Z,17.08
2018-06-03T05:04:05.491Z,17.15
2018-06-03T05:06:33.995Z,17.15
2018-06-03T05:09:02.456Z,17.16
2018-06-03T05:11:30.892Z,17.24
2018-06-03T05:13:59.270Z,17.22
2018-06-03T05:16:27.634Z,17.25
2018-06-03T05:18:56.095Z,17.22
2018-06-03T05:21:24.574Z,17.26
2018-06-03T05:23:53.057Z,17.29
2018-06-03T05:26:21.467Z,17.33
2018-06-03T05:28:49.870Z,17.33
2018-06-03T05:31:18.395Z,17.28
2018-06-03T05:33:46.822Z,17.26
2018-06-03T05:36:15.169Z,17.26
2018-06-03T05:38:43.577Z,17.23
2018-06-03T05:41:11.938Z,17.22
2018-06-03T05:43:40.347Z,17.21
2018-06-03T05:46:08.810Z,17.28
2018-06-03T05:48:37.198Z,17.25
2018-06-03T05:51:05.559Z,17.29
2018-06-03T05:53:33.975Z,17.27
2018-06-03T05:56:02.422Z,17.33
2018-06-03T05:58:30.814Z,17.34
2018-06-03T06:00:59.203Z,17.42
2018-06-03T06:03:27.665Z,17.57
2018-06-03T06:05:56.066Z,17.71
2018-06-03T06:08:24.514Z,17.79
2018-06-03T06:10:52.963Z,17.92
2018-06-03T06:13:21.398Z,18.05
2018-06-03T06:15:49.850Z,18.15
2018-06-03T06:18:18.249Z,18.26
2018-06-03T06:23:15.614Z,18.43
2018-06-03T06:25:44.038Z,18.48
2018-06-03T06:28:12.478Z,18.59
2018-06-03T06:30:40.886Z,18.67
2018-06-03T06:33:09.342Z,18.75
2018-06-03T06:35:37.751Z,18.82
2018-06-03T06:38:06.220Z,18.91
2018-06-03T06:40:34.856Z,19.01
2018-06-03T06:43:07.004Z,19.07
2018-06-03T06:45:39.158Z,19.10
2018-06-03T06:48:10.006Z,19.17
2018-06-03T06:50:44.221Z,19.29
2018-06-03T06:53:16.303Z,19.41
2018-06-03T06:55:47.320Z,19.70
2018-06-03T06:58:19.597Z,19.80
2018-06-03T07:00:50.330Z,19.98
2018-06-03T07:03:21.673Z,20.19
2018-06-03T07:05:52.786Z,20.35
2018-06-03T07:08:25.019Z,20.47
2018-06-03T07:10:56.901Z,20.63
2018-06-03T07:13:27.565Z,20.51
2018-06-03T07:16:00.048Z,20.85
2018-06-03T07:18:30.828Z,20.98
2018-06-03T07:21:02.326Z,21.12
2018-06-03T07:23:34.068Z,21.21
2018-06-03T07:26:05.425Z,21.29
2018-06-03T07:28:35.952Z,21.32
2018-06-03T07:31:06.896Z,21.36
2018-06-03T07:33:37.732Z,21.58
2018-06-03T07:36:08.462Z,21.60
2018-06-03T07:38:40.727Z,21.66
2018-06-03T07:41:14.260Z,21.82
2018-06-03T07:43:47.306Z,22.12
2018-06-03T07:46:19.477Z,22.31
2018-06-03T07:48:53.085Z,22.41
2018-06-03T07:51:24.735Z,22.63
2018-06-03T07:53:55.148Z,22.59
2018-06-03T07:56:26.922Z,22.79
2018-06-03T07:59:06.045Z,23.21
2018-06-03T08:01:39.167Z,23.37
2018-06-03T08:08:30.870Z,23.33
2018-06-03T08:11:02.831Z,23.45
2018-06-03T08:13:34.284Z,23.78
2018-06-03T08:16:06.654Z,24.02
2018-06-03T08:18:40.149Z,24.20
2018-06-03T08:21:12.925Z,24.11
2018-06-03T08:23:44.784Z,24.36
2018-06-03T08:26:16.954Z,24.22
2018-06-03T08:28:48.094Z,24.72
2018-06-03T08:31:20.055Z,24.76
2018-06-03T08:33:50.268Z,24.69
2018-06-03T08:41:57.884Z,24.84
2018-06-03T08:44:30.779Z,25.07
2018-06-03T08:56:25.587Z,25.18
2018-06-03T08:58:54.146Z,25.93
2018-06-03T09:01:22.618Z,25.81
2018-06-03T09:03:51.127Z,25.95
2018-06-03T09:06:19.517Z,26.09
2018-06-03T09:08:48.007Z,26.08
2018-06-03T09:11:16.612Z,26.53
2018-06-03T09:13:45.366Z,26.91
2018-06-03T09:16:13.747Z,27.26
2018-06-03T09:18:42.126Z,27.45
2018-06-03T09:21:10.562Z,27.15
2018-06-03T09:23:39.049Z,27.31
2018-06-03T09:26:07.643Z,27.20
2018-06-03T09:28:36.143Z,27.32
2018-06-03T09:31:06.593Z,27.46
2018-06-03T09:33:36.180Z,27.49
2018-06-03T09:36:04.666Z,27.54
2018-06-03T09:38:33.098Z,27.45
2018-06-03T09:41:01.634Z,28.06
2018-06-03T09:43:30.059Z,28.37
2018-06-03T09:45:58.570Z,28.41
2018-06-03T09:48:27.055Z,28.84
2018-06-03T09:50:55.487Z,29.20
2018-06-03T09:53:24.028Z,29.50
2018-06-03T09:55:52.530Z,29.93
2018-06-03T09:58:20.953Z,29.31
2018-06-03T10:00:49.447Z,29.71
2018-06-03T10:03:17.903Z,29.59
2018-06-03T10:05:47.403Z,30.08
2018-06-03T10:08:15.850Z,30.14
2018-06-03T10:10:44.371Z,30.00
2018-06-03T10:13:12.966Z,30.36
2018-06-03T10:15:41.435Z,30.08
2018-06-03T10:18:15.015Z,30.21
2018-06-03T10:20:50.656Z,30.81
2018-06-03T10:23:19.359Z,31.46
2018-06-03T10:25:47.891Z,31.75
2018-06-03T10:28:16.301Z,32.46
2018-06-03T10:30:55.392Z,32.58
2018-06-03T10:33:30.328Z,32.22
2018-06-03T10:36:06.081Z,31.90
2018-06-03T10:38:44.956Z,32.49
2018-06-03T10:41:16.382Z,32.74
2018-06-03T10:43:45.002Z,32.60
2018-06-03T10:46:13.589Z,32.85
2018-06-03T10:48:42.228Z,32.33
2018-06-03T10:51:10.616Z,32.50
2018-06-03T10:53:39.095Z,32.56
2018-06-03T10:56:07.622Z,32.31
2018-06-03T10:58:36.094Z,31.17
2018-06-03T11:01:04.526Z,31.27
2018-06-03T11:03:32.955Z,30.91
2018-06-03T11:06:01.411Z,30.57
2018-06-03T11:08:29.898Z,29.79
2018-06-03T11:10:58.415Z,29.19
2018-06-03T11:13:26.875Z,28.92
2018-06-03T11:15:55.391Z,28.69
2018-06-03T11:18:23.806Z,28.70
2018-06-03T11:20:52.263Z,29.01
2018-06-03T11:23:20.651Z,29.31
2018-06-03T11:25:49.130Z,30.21
2018-06-03T11:28:17.546Z,30.16
2018-06-03T11:30:46.000Z,30.84
2018-06-03T11:33:14.522Z,31.24
2018-06-03T11:35:43.182Z,30.83
2018-06-03T11:38:11.661Z,31.55
2018-06-03T11:40:40.192Z,32.13
2018-06-03T11:43:08.715Z,32.96
2018-06-03T11:45:37.295Z,32.53
2018-06-03T11:48:05.827Z,33.87
2018-06-03T11:50:34.360Z,34.87
2018-06-03T11:53:02.855Z,35.01
2018-06-03T11:55:31.280Z,35.55
2018-06-03T11:59:08.946Z,36.76
2018-06-03T12:01:37.502Z,36.68
2018-06-03T12:04:05.894Z,38.40
2018-06-03T12:06:34.414Z,37.45
2018-06-03T12:09:03.103Z,39.63
2018-06-03T12:11:31.646Z,38.85
2018-06-03T12:14:00.094Z,39.05
2018-06-03T12:16:28.539Z,37.73
2018-06-03T12:18:57.147Z,37.91
2018-06-03T12:21:25.582Z,38.50
2018-06-03T12:23:54.088Z,39.20
2018-06-03T12:26:22.591Z,38.86
2018-06-03T12:28:51.034Z,39.13
2018-06-03T12:31:19.528Z,39.59
2018-06-03T12:33:47.971Z,39.59
2018-06-03T12:36:16.434Z,40.06
2018-06-03T12:38:44.855Z,41.10
2018-06-03T12:41:13.369Z,40.85
2018-06-03T12:43:41.851Z,40.73
2018-06-03T12:46:10.379Z,40.54
2018-06-03T12:48:38.797Z,40.41
2018-06-03T12:51:08.396Z,40.24
2018-06-03T12:53:36.898Z,40.74
2018-06-03T12:56:05.338Z,41.44
2018-06-03T12:58:33.827Z,41.92
2018-06-03T13:01:02.314Z,41.39
2018-06-03T13:03:30.903Z,41.11
2018-06-03T13:05:59.363Z,40.95
2018-06-03T13:08:27.806Z,41.66
2018-06-03T13:10:56.432Z,41.26
2018-06-03T13:13:25.024Z,40.79
2018-06-03T13:15:53.586Z,40.91
2018-06-03T13:18:22.069Z,41.59
2018-06-03T13:20:50.443Z,41.84
2018-06-03T13:23:18.933Z,42.08
2018-06-03T13:25:47.330Z,41.51
2018-06-03T13:28:15.862Z,41.13
2018-06-03T13:30:44.315Z,40.89
2018-06-03T13:33:12.840Z,41.19
2018-06-03T13:35:41.238Z,40.35
2018-06-03T13:38:09.624Z,41.12
2018-06-03T13:40:38.031Z,41.38
2018-06-03T13:43:06.683Z,41.19
2018-06-03T13:45:35.219Z,41.31
2018-06-03T13:48:03.634Z,40.76
2018-06-03T13:50:32.186Z,41.41
2018-06-03T13:53:01.024Z,41.70
2018-06-03T13:55:29.458Z,43.96
2018-06-03T13:57:57.910Z,43.30
2018-06-03T14:00:26.475Z,42.78
2018-06-03T14:02:55.002Z,44.21
2018-06-03T14:05:23.425Z,43.26
2018-06-03T14:07:52.083Z,44.02
2018-06-03T14:10:20.694Z,43.48
2018-06-03T14:12:49.152Z,43.74
2018-06-03T14:15:17.702Z,43.12
2018-06-03T14:17:46.526Z,43.47
2018-06-03T14:20:15.029Z,43.69
2018-06-03T14:22:44.095Z,43.45
2018-06-03T14:25:12.649Z,44.65
2018-06-03T14:27:41.441Z,43.64
2018-06-03T14:30:09.979Z,40.63
2018-06-03T14:32:38.462Z,41.81
2018-06-03T14:35:06.874Z,42.91
2018-06-03T14:37:35.542Z,43.38
2018-06-03T14:40:04.710Z,42.81
2018-06-03T14:42:33.106Z,43.50
2018-06-03T14:45:01.503Z,41.67
2018-06-03T14:47:30.781Z,40.00
2018-06-03T14:49:59.297Z,40.63
2018-06-03T14:52:29.094Z,41.35
2018-06-03T14:54:58.210Z,42.30
2018-06-03T14:57:26.661Z,41.16
2018-06-03T14:59:55.054Z,41.06
2018-06-03T15:02:23.698Z,41.51
2018-06-03T15:04:52.182Z,40.62
2018-06-03T15:07:20.867Z,41.12
2018-06-03T15:09:49.516Z,42.19
2018-06-03T15:12:18.102Z,40.61
2018-06-03T15:14:46.547Z,41.12
2018-06-03T15:17:15.014Z,40.30
2018-06-03T15:19:43.694Z,40.30
2018-06-03T15:22:15.915Z,39.92
2018-06-03T15:24:44.376Z,41.29
2018-06-03T15:27:13.050Z,40.81
2018-06-03T15:29:41.523Z,42.28
2018-06-03T15:32:09.954Z,43.39
2018-06-03T15:34:38.435Z,42.07
2018-06-03T15:37:07.018Z,42.12
2018-06-03T15:39:35.483Z,41.87
2018-06-03T15:42:04.064Z,40.60
2018-06-03T15:44:32.494Z,41.84
2018-06-03T15:47:01.390Z,40.72
2018-06-03T15:49:29.843Z,40.91
2018-06-03T15:51:58.333Z,41.27
2018-06-03T15:54:26.797Z,39.40
2018-06-03T15:56:55.255Z,37.37
2018-06-03T15:59:23.674Z,37.38
2018-06-03T16:01:52.332Z,40.02
2018-06-03T16:04:21.015Z,39.33
2018-06-03T16:06:49.435Z,39.49
2018-06-03T16:09:17.933Z,38.38
2018-06-03T16:11:46.422Z,37.95
2018-06-03T16:14:14.871Z,37.56
2018-06-03T16:16:43.310Z,36.70
2018-06-03T16:19:11.975Z,36.16
2018-06-03T16:21:40.420Z,36.09
2018-06-03T16:24:08.770Z,35.49
2018-06-03T16:26:37.213Z,35.65
2018-06-03T16:29:05.939Z,34.84
2018-06-03T16:31:34.370Z,34.83
2018-06-03T16:34:03.013Z,33.01
2018-06-03T16:36:31.506Z,33.51
2018-06-03T16:39:00.054Z,33.54
2018-06-03T16:41:28.619Z,32.46
2018-06-03T16:43:57.079Z,31.85
2018-06-03T16:46:25.546Z,31.04
2018-06-03T16:48:54.002Z,30.75
2018-06-03T16:51:22.356Z,30.18
2018-06-03T16:53:50.778Z,29.97
2018-06-03T16:56:19.229Z,29.24
2018-06-03T16:58:47.762Z,29.18
2018-06-03T17:01:16.286Z,28.96
2018-06-03T17:03:44.724Z,28.51
2018-06-03T17:06:13.179Z,28.42
2018-06-03T17:08:42.383Z,28.31
2018-06-03T17:11:10.841Z,27.95
2018-06-03T17:13:39.314Z,27.84
2018-06-03T17:16:07.775Z,27.58
2018-06-03T17:18:36.325Z,27.48
2018-06-03T17:21:04.860Z,27.35
2018-06-03T17:23:33.358Z,27.16
2018-06-03T17:26:01.850Z,27.12
2018-06-03T17:28:30.350Z,27.21
2018-06-03T17:30:58.819Z,27.03
2018-06-03T17:33:27.323Z,27.04
2018-06-03T17:35:55.758Z,26.96
2018-06-03T17:38:24.254Z,26.91
2018-06-03T17:40:53.098Z,26.87
2018-06-03T17:43:21.511Z,26.74
2018-06-03T17:45:54.130Z,26.64
2018-06-03T17:48:22.847Z,26.59
2018-06-03T17:50:51.655Z,26.42
2018-06-03T17:53:20.578Z,26.47
2018-06-03T17:55:49.060Z,26.31
2018-06-03T17:58:17.674Z,26.10
2018-06-03T18:00:46.098Z,26.02
2018-06-03T18:03:14.536Z,25.92
2018-06-03T18:05:42.957Z,25.94
2018-06-03T18:08:11.402Z,25.94
2018-06-03T18:10:39.914Z,25.89
2018-06-03T18:13:08.467Z,25.90
2018-06-03T18:15:36.893Z,25.90
2018-06-03T18:18:05.374Z,25.83
2018-06-03T18:20:33.842Z,25.82
2018-06-03T18:23:04.630Z,25.78
2018-06-03T18:25:35.866Z,25.75
2018-06-03T18:28:07.742Z,25.66
2018-06-03T18:30:38.666Z,25.54
2018-06-03T18:33:09.235Z,25.53
2018-06-03T18:35:40.249Z,25.49
2018-06-03T18:38:11.076Z,25.51
2018-06-03T18:40:42.940Z,25.40
2018-06-03T18:43:14.796Z,25.34
2018-06-03T18:45:47.256Z,25.22
2018-06-03T18:48:18.449Z,25.09
2018-06-03T18:50:49.157Z,25.07
2018-06-03T18:53:20.551Z,25.03
2018-06-03T18:55:51.322Z,24.96
2018-06-03T18:58:22.376Z,24.91
2018-06-03T19:00:53.195Z,24.81
2018-06-03T19:03:23.823Z,24.74
2018-06-03T19:05:54.958Z,24.63
2018-06-03T19:08:28.045Z,24.53
2018-06-03T19:10:58.460Z,24.43
2018-06-03T19:13:28.996Z,24.31
2018-06-03T19:16:00.567Z,24.26
2018-06-03T19:18:31.609Z,24.19
2018-06-03T19:21:02.628Z,24.09
2018-06-03T19:23:33.970Z,23.99
2018-06-03T19:26:04.833Z,23.89
2018-06-03T19:28:36.033Z,23.86
2018-06-03T19:31:07.803Z,23.88
2018-06-03T19:33:37.712Z,23.92
2018-06-03T19:36:08.028Z,23.90
2018-06-03T19:38:38.459Z,23.88
2018-06-03T19:41:08.986Z,23.88
2018-06-03T19:43:39.327Z,23.85
2018-06-03T19:46:09.656Z,23.79
2018-06-03T19:48:41.130Z,23.72
2018-06-03T19:51:13.859Z,23.69
2018-06-03T19:53:45.001Z,23.73
2018-06-03T19:56:15.628Z,23.71
2018-06-03T19:58:48.018Z,23.67
2018-06-03T20:01:19.246Z,23.58
2018-06-03T20:03:51.240Z,23.52
2018-06-03T20:06:21.938Z,23.46
2018-06-03T20:08:50.638Z,23.36
2018-06-03T20:11:22.254Z,23.26
2018-06-03T20:13:54.433Z,23.16
2018-06-03T20:16:25.266Z,23.11
2018-06-03T20:18:56.712Z,23.07
2018-06-03T20:21:27.106Z,22.96
2018-06-03T20:23:58.176Z,22.87
2018-06-03T20:26:29.522Z,22.85
2018-06-03T20:29:01.063Z,22.83
2018-06-03T20:31:31.692Z,22.82
2018-06-03T20:34:04.185Z,22.69
2018-06-03T20:36:36.509Z,22.55
2018-06-03T20:39:09.024Z,22.45
2018-06-03T20:41:39.947Z,22.33
2018-06-03T20:44:11.392Z,22.28
2018-06-03T20:46:42.024Z,22.26
2018-06-03T20:49:12.448Z,22.23
2018-06-03T20:51:43.525Z,22.20
2018-06-03T20:54:14.523Z,22.14
2018-06-03T20:56:46.169Z,22.07
2018-06-03T20:59:21.712Z,21.97
2018-06-03T21:01:53.991Z,21.90
2018-06-03T21:04:24.824Z,21.83
2018-06-03T21:06:55.044Z,21.79
2018-06-03T21:09:25.572Z,21.73
2018-06-03T21:11:56.787Z,21.71
2018-06-03T21:14:25.370Z,21.81
2018-06-03T21:16:53.801Z,21.82
2018-06-03T21:19:22.270Z,21.82
2018-06-03T21:21:50.831Z,21.82
2018-06-03T21:24:19.407Z,21.82
2018-06-03T21:26:47.777Z,21.82
2018-06-03T21:29:16.219Z,21.79
2018-06-03T21:31:44.682Z,21.74
2018-06-03T21:34:13.179Z,21.72
2018-06-03T21:36:41.634Z,21.73
2018-06-03T21:39:10.059Z,21.70
2018-06-03T21:41:38.488Z,21.69
2018-06-03T21:44:06.894Z,21.77
2018-06-03T21:46:35.360Z,21.81
2018-06-03T21:49:03.830Z,21.87
2018-06-03T21:51:32.199Z,22.02
2018-06-03T21:54:00.595Z,22.12
2018-06-03T21:56:29.210Z,22.16
2018-06-03T21:58:57.693Z,22.25
2018-06-03T22:01:26.118Z,22.28
2018-06-03T22:06:22.073Z,22.23
2018-06-03T22:08:50.454Z,22.23
2018-06-03T22:11:18.994Z,22.25
2018-06-03T22:13:47.471Z,22.22
2018-06-03T22:16:15.954Z,22.20
2018-06-03T22:18:44.393Z,22.20
2018-06-03T22:21:12.906Z,22.17
2018-06-03T22:23:41.358Z,22.18
2018-06-03T22:26:09.821Z,22.15
2018-06-03T22:28:38.226Z,22.16
2018-06-03T22:31:06.668Z,22.10
2018-06-03T22:33:35.156Z,22.05
2018-06-03T22:36:03.527Z,21.83
2018-06-03T22:38:31.924Z,21.58
2018-06-03T22:41:00.310Z,21.33
2018-06-03T22:43:28.766Z,21.09
2018-06-03T22:45:57.167Z,20.97
2018-06-03T22:48:25.541Z,20.87
2018-06-03T22:50:53.970Z,20.80
2018-06-03T22:53:22.397Z,20.70
2018-06-03T22:55:50.782Z,20.53
2018-06-03T22:58:19.193Z,20.48
2018-06-03T23:00:47.655Z,20.35
2018-06-03T23:03:16.654Z,20.26
2018-06-03T23:05:45.142Z,20.32
2018-06-03T23:08:13.606Z,20.26
2018-06-03T23:10:42.174Z,20.32
2018-06-03T23:13:10.584Z,20.23
2018-06-03T23:15:39.087Z,20.26
2018-06-03T23:18:07.510Z,20.26
2018-06-03T23:20:35.918Z,20.25
2018-06-03T23:23:04.398Z,20.19
2018-06-03T23:25:32.947Z,20.06
2018-06-03T23:28:01.362Z,20.00
2018-06-03T23:30:29.869Z,19.98
2018-06-03T23:32:58.352Z,20.04
2018-06-03T23:35:26.818Z,20.06
2018-06-03T23:37:55.333Z,20.04
2018-06-03T23:40:23.806Z,20.11
2018-06-03T23:42:52.332Z,20.10
2018-06-03T23:45:20.734Z,20.07
2018-06-03T23:47:49.186Z,20.17
2018-06-03T23:50:17.776Z,20.18
2018-06-03T23:52:46.142Z,20.15
2018-06-03T23:55:14.560Z,20.08
2018-06-03T23:57:43.031Z,20.03
